createdAt,value
2023-03-02T00:02:04.829Z,100.00
2023-03-02T00:07:35.652Z,100.00
2023-03-02T00:12:59.283Z,100.00
2023-03-02T00:18:21.445Z,100.00
2023-03-02T00:23:43.746Z,100.00
2023-03-02T00:29:06.141Z,100.00
2023-03-02T00:34:28.279Z,100.00
2023-03-02T00:39:52.667Z,100.00
2023-03-02T00:45:15.066Z,100.00
2023-03-02T00:50:41.571Z,100.00
2023-03-02T00:56:05.270Z,100.00
2023-03-02T01:01:30.427Z,100.00
2023-03-02T01:06:52.331Z,100.00
2023-03-02T01:12:15.002Z,100.00
2023-03-02T01:17:37.426Z,100.00
2023-03-02T01:22:59.369Z,100.00
2023-03-02T01:28:21.373Z,100.00
2023-03-02T01:33:43.741Z,100.00
2023-03-02T01:39:06.355Z,100.00
2023-03-02T01:44:42.140Z,100.00
2023-03-02T01:50:22.414Z,100.00
2023-03-02T01:55:49.181Z,100.00
2023-03-02T02:01:16.090Z,100.00
2023-03-02T02:06:41.340Z,100.00
2023-03-02T02:12:03.900Z,100.00
2023-03-02T02:17:26.388Z,100.00
2023-03-02T02:23:05.914Z,100.00
2023-03-02T02:28:36.032Z,100.00
2023-03-02T02:34:09.834Z,100.00
2023-03-02T02:39:36.390Z,100.00
2023-03-02T02:45:01.935Z,100.00
2023-03-02T02:50:33.305Z,100.00
2023-03-02T02:55:58.750Z,100.00
2023-03-02T03:15:36.408Z,100.00
2023-03-02T03:21:51.378Z,100.00
2023-03-02T03:27:16.336Z,100.00
2023-03-02T03:32:40.576Z,100.00
2023-03-02T03:38:07.125Z,100.00
2023-03-02T03:43:29.840Z,100.00
2023-03-02T03:48:52.684Z,100.00
2023-03-02T03:54:15.229Z,100.00
2023-03-02T03:59:39.145Z,100.00
2023-03-02T04:05:06.900Z,100.00
2023-03-02T04:10:30.272Z,100.00
2023-03-02T04:15:54.475Z,100.00
2023-03-02T04:21:17.038Z,100.00
2023-03-02T04:26:40.453Z,100.00
2023-03-02T04:32:05.712Z,100.00
2023-03-02T04:37:28.941Z,100.00
2023-03-02T04:42:51.251Z,100.00
2023-03-02T04:48:13.286Z,100.00
2023-03-02T04:53:35.350Z,100.00
2023-03-02T04:58:57.965Z,100.00
2023-03-02T05:04:20.768Z,100.00
2023-03-02T05:09:43.450Z,100.00
2023-03-02T05:15:05.758Z,100.00
2023-03-02T05:20:30.958Z,100.00
2023-03-02T05:25:56.757Z,100.00
2023-03-02T05:31:24.293Z,100.00
2023-03-02T05:36:46.604Z,100.00
2023-03-02T05:42:08.371Z,100.00
2023-03-02T05:47:35.625Z,100.00
2023-03-02T05:52:58.853Z,100.00
2023-03-02T05:58:21.715Z,100.00
2023-03-02T06:03:47.100Z,100.00
2023-03-02T06:09:09.850Z,100.00
2023-03-02T06:14:32.240Z,100.00
2023-03-02T06:19:54.195Z,100.00
2023-03-02T06:25:19.698Z,100.00
2023-03-02T06:30:42.359Z,100.00
2023-03-02T06:36:04.727Z,100.00
2023-03-02T06:41:27.201Z,100.00
2023-03-02T06:46:49.033Z,100.00
2023-03-02T06:52:11.662Z,100.00
2023-03-02T06:57:36.551Z,100.00
2023-03-02T07:02:58.539Z,100.00
2023-03-02T07:08:20.499Z,100.00
2023-03-02T07:13:42.764Z,100.00
2023-03-02T07:19:05.114Z,100.00
2023-03-02T07:24:26.918Z,100.00
2023-03-02T07:29:49.025Z,100.00
2023-03-02T07:35:11.148Z,100.00
2023-03-02T07:40:33.068Z,100.00
2023-03-02T07:45:58.069Z,100.00
2023-03-02T07:51:21.629Z,100.00
2023-03-02T07:56:46.568Z,100.00
2023-03-02T08:02:13.677Z,100.00
2023-03-02T08:07:36.163Z,100.00
2023-03-02T08:12:58.178Z,100.00
2023-03-02T08:18:20.591Z,100.00
2023-03-02T08:23:43.163Z,100.00
2023-03-02T08:29:06.323Z,100.00
2023-03-02T08:34:28.658Z,100.00
2023-03-02T08:39:52.472Z,100.00
2023-03-02T08:45:14.899Z,100.00
2023-03-02T08:50:36.977Z,100.00
2023-03-02T08:55:59.204Z,100.00
2023-03-02T09:01:24.584Z,100.00
2023-03-02T09:06:46.589Z,100.00
2023-03-02T09:12:08.557Z,100.00
2023-03-02T09:17:30.507Z,100.00
2023-03-02T09:22:52.787Z,99.18
2023-03-02T09:28:15.544Z,100.00
2023-03-02T09:33:37.423Z,99.65
2023-03-02T09:38:59.302Z,94.50
2023-03-02T09:44:41.199Z,90.78
2023-03-02T09:50:31.493Z,92.24
2023-03-02T09:56:00.694Z,89.30
2023-03-02T10:01:57.047Z,91.00
2023-03-02T10:07:31.443Z,90.46
2023-03-02T10:13:04.329Z,91.77
2023-03-02T10:18:50.442Z,90.03
2023-03-02T10:24:54.196Z,89.69
2023-03-02T10:30:37.847Z,89.46
2023-03-02T10:36:05.221Z,91.75
2023-03-02T10:42:05.508Z,94.45
2023-03-02T10:47:42.598Z,96.53
2023-03-02T10:53:16.503Z,95.76
2023-03-02T10:58:38.243Z,92.86
2023-03-02T11:04:02.583Z,90.01
2023-03-02T11:14:46.624Z,89.27
2023-03-02T11:20:20.617Z,88.50
2023-03-02T11:25:53.509Z,91.55
2023-03-02T11:31:27.616Z,90.63
2023-03-02T11:36:59.560Z,90.92
2023-03-02T11:42:33.713Z,91.12
2023-03-02T11:48:03.592Z,92.24
2023-03-02T11:53:30.672Z,93.27
2023-03-02T11:58:58.636Z,95.17
2023-03-02T12:04:38.754Z,94.57
2023-03-02T12:10:05.490Z,92.89
2023-03-02T12:15:30.063Z,92.04
2023-03-02T12:21:11.672Z,90.46
2023-03-02T12:34:50.266Z,94.05
2023-03-02T12:40:38.255Z,95.75
2023-03-02T12:46:14.409Z,97.21
2023-03-02T12:52:06.617Z,96.10
2023-03-02T12:57:39.805Z,96.25
2023-03-02T13:03:07.584Z,93.85
2023-03-02T13:08:33.281Z,94.36
2023-03-02T13:13:55.512Z,94.46
2023-03-02T13:19:22.240Z,93.36
2023-03-02T13:24:56.210Z,91.79
2023-03-02T13:30:34.179Z,90.88
2023-03-02T13:35:56.972Z,90.13
2023-03-02T13:41:30.514Z,90.30
2023-03-02T13:46:55.542Z,91.19
2023-03-02T13:52:31.841Z,93.16
2023-03-02T13:57:55.421Z,93.63
2023-03-02T14:03:27.804Z,94.74
2023-03-02T14:08:50.712Z,96.61
2023-03-02T14:14:19.394Z,100.00
2023-03-02T14:19:43.919Z,100.00
2023-03-02T14:25:06.440Z,100.00
2023-03-02T14:30:28.437Z,100.00
2023-03-02T14:35:53.901Z,100.00
2023-03-02T14:41:23.623Z,100.00
2023-03-02T14:46:45.968Z,100.00
2023-03-02T14:52:15.960Z,100.00
2023-03-02T14:57:41.686Z,100.00
2023-03-02T15:03:07.359Z,100.00
2023-03-02T15:08:30.713Z,100.00
2023-03-02T15:13:53.841Z,100.00
2023-03-02T15:19:21.919Z,100.00
2023-03-02T15:24:50.127Z,100.00
2023-03-02T15:30:12.928Z,100.00
2023-03-02T15:35:39.156Z,100.00
2023-03-02T15:41:06.333Z,100.00
2023-03-02T15:46:31.801Z,100.00
2023-03-02T15:51:57.900Z,100.00
2023-03-02T15:57:20.522Z,100.00
2023-03-02T16:02:42.810Z,100.00
2023-03-02T16:08:05.196Z,100.00
2023-03-02T16:13:31.170Z,100.00
2023-03-02T16:18:58.774Z,100.00
2023-03-02T16:24:20.788Z,100.00
2023-03-02T16:29:44.000Z,100.00
2023-03-02T16:35:07.286Z,100.00
2023-03-02T16:40:29.827Z,100.00
2023-03-02T16:45:53.162Z,100.00
2023-03-02T16:51:16.199Z,100.00
2023-03-02T16:56:38.961Z,100.00
2023-03-02T17:02:04.514Z,100.00
2023-03-02T17:07:30.171Z,100.00
2023-03-02T17:13:21.869Z,100.00
2023-03-02T17:18:49.709Z,100.00
2023-03-02T17:24:11.559Z,100.00
2023-03-02T17:29:33.204Z,100.00
2023-03-02T17:34:54.932Z,100.00
2023-03-02T17:40:17.738Z,100.00
2023-03-02T17:45:40.782Z,100.00
2023-03-02T17:51:02.536Z,100.00
2023-03-02T17:56:27.374Z,100.00
2023-03-02T18:01:49.793Z,100.00
2023-03-02T18:07:13.760Z,100.00
2023-03-02T18:12:35.901Z,100.00
2023-03-02T18:18:03.478Z,100.00
2023-03-02T18:23:26.345Z,100.00
2023-03-02T18:28:51.660Z,100.00
2023-03-02T18:34:14.084Z,100.00
2023-03-02T18:39:38.394Z,100.00
2023-03-02T18:45:01.265Z,100.00
2023-03-02T18:50:27.368Z,100.00
2023-03-02T18:55:56.089Z,100.00
2023-03-02T19:01:19.932Z,100.00
2023-03-02T19:06:46.357Z,100.00
2023-03-02T19:12:08.632Z,100.00
2023-03-02T19:17:30.607Z,100.00
2023-03-02T19:22:52.641Z,100.00
2023-03-02T19:28:14.775Z,100.00
2023-03-02T19:33:36.997Z,100.00
2023-03-02T19:38:58.752Z,100.00
2023-03-02T19:44:20.530Z,100.00
2023-03-02T19:49:42.606Z,100.00
2023-03-02T19:55:04.536Z,100.00
2023-03-02T20:00:28.695Z,100.00
2023-03-02T20:05:49.749Z,100.00
2023-03-02T20:11:12.740Z,100.00
2023-03-02T20:16:39.307Z,100.00
2023-03-02T20:22:03.356Z,100.00
2023-03-02T20:27:25.667Z,100.00
2023-03-02T20:32:47.958Z,100.00
2023-03-02T20:38:16.230Z,100.00
2023-03-02T20:43:39.819Z,100.00
2023-03-02T20:49:02.323Z,100.00
2023-03-02T20:54:29.703Z,100.00
2023-03-02T20:59:51.886Z,100.00
2023-03-02T21:05:14.460Z,100.00
2023-03-02T21:10:38.876Z,100.00
2023-03-02T21:16:01.575Z,100.00
2023-03-02T21:21:35.704Z,100.00
2023-03-02T21:27:03.524Z,100.00
2023-03-02T21:32:25.793Z,100.00
2023-03-02T21:37:50.664Z,100.00
2023-03-02T21:43:14.655Z,100.00
2023-03-02T21:48:37.043Z,100.00
2023-03-02T21:53:59.542Z,100.00
2023-03-02T21:59:21.408Z,100.00
2023-03-02T22:04:43.610Z,100.00
2023-03-02T22:10:06.373Z,100.00
2023-03-02T22:15:28.787Z,100.00
2023-03-02T22:20:52.670Z,100.00
2023-03-02T22:26:18.050Z,100.00
2023-03-02T22:31:45.139Z,100.00
2023-03-02T22:37:18.556Z,100.00
2023-03-02T22:42:40.625Z,100.00
2023-03-02T22:48:02.945Z,100.00
2023-03-02T22:53:31.340Z,100.00
2023-03-02T22:58:54.656Z,100.00
2023-03-02T23:04:30.783Z,100.00
2023-03-02T23:09:52.869Z,100.00
2023-03-02T23:15:20.517Z,100.00
2023-03-02T23:20:42.898Z,100.00
2023-03-02T23:26:05.354Z,100.00
2023-03-02T23:31:30.045Z,100.00
2023-03-02T23:36:52.206Z,100.00
2023-03-02T23:42:14.485Z,100.00
2023-03-02T23:47:36.623Z,100.00
2023-03-02T23:52:58.844Z,100.00
2023-03-02T23:58:21.777Z,100.00
